sensor_id;sensor_type;location;lat;lon;timestamp;P1;durP1;ratioP1;P2;durP2;ratioP2
13967;SDS011;39536;52.198;9.920;2022-12-29T00:01:26;1.70;;;1.60;;
13967;SDS011;39536;52.198;9.920;2022-12-29T00:03:53;2.97;;;1.50;;
13967;SDS011;39536;52.198;9.920;2022-12-29T00:06:19;1.47;;;1.37;;
13967;SDS011;39536;52.198;9.920;2022-12-29T00:08:46;1.77;;;1.57;;
13967;SDS011;39536;52.198;9.920;2022-12-29T00:11:14;1.77;;;1.40;;
13967;SDS011;39536;52.198;9.920;2022-12-29T00:13:42;1.77;;;1.50;;
13967;SDS011;39536;52.198;9.920;2022-12-29T00:16:27;1.47;;;1.20;;
13967;SDS011;39536;52.198;9.920;2022-12-29T00:18:55;1.80;;;1.70;;
13967;SDS011;39536;52.198;9.920;2022-12-29T00:21:22;1.60;;;1.20;;
13967;SDS011;39536;52.198;9.920;2022-12-29T00:24:09;1.03;;;1.03;;
13967;SDS011;39536;52.198;9.920;2022-12-29T00:26:56;1.30;;;1.20;;
13967;SDS011;39536;52.198;9.920;2022-12-29T00:29:56;1.77;;;1.40;;
13967;SDS011;39536;52.198;9.920;2022-12-29T00:32:43;1.13;;;1.07;;
13967;SDS011;39536;52.198;9.920;2022-12-29T00:35:28;0.93;;;0.90;;
13967;SDS011;39536;52.198;9.920;2022-12-29T00:37:57;0.80;;;0.80;;
13967;SDS011;39536;52.198;9.920;2022-12-29T00:40:45;2.00;;;1.40;;
13967;SDS011;39536;52.198;9.920;2022-12-29T00:43:28;2.57;;;1.73;;
13967;SDS011;39536;52.198;9.920;2022-12-29T00:46:12;2.87;;;1.43;;
13967;SDS011;39536;52.198;9.920;2022-12-29T00:48:40;1.37;;;1.27;;
13967;SDS011;39536;52.198;9.920;2022-12-29T00:51:24;1.63;;;1.23;;
13967;SDS011;39536;52.198;9.920;2022-12-29T00:53:51;1.30;;;1.17;;
13967;SDS011;39536;52.198;9.920;2022-12-29T00:56:17;1.40;;;1.30;;
13967;SDS011;39536;52.198;9.920;2022-12-29T00:58:44;1.80;;;1.10;;
13967;SDS011;39536;52.198;9.920;2022-12-29T01:01:10;0.70;;;0.70;;
13967;SDS011;39536;52.198;9.920;2022-12-29T01:03:37;1.10;;;1.10;;
13967;SDS011;39536;52.198;9.920;2022-12-29T01:06:06;1.20;;;1.10;;
13967;SDS011;39536;52.198;9.920;2022-12-29T01:08:34;1.03;;;1.00;;
13967;SDS011;39536;52.198;9.920;2022-12-29T01:11:01;1.00;;;1.00;;
13967;SDS011;39536;52.198;9.920;2022-12-29T01:13:28;1.67;;;1.57;;
13967;SDS011;39536;52.198;9.920;2022-12-29T01:15:55;1.10;;;1.03;;
13967;SDS011;39536;52.198;9.920;2022-12-29T01:18:22;1.10;;;1.00;;
13967;SDS011;39536;52.198;9.920;2022-12-29T01:20:50;0.87;;;0.87;;
13967;SDS011;39536;52.198;9.920;2022-12-29T01:23:18;1.27;;;1.17;;
13967;SDS011;39536;52.198;9.920;2022-12-29T01:25:44;1.10;;;1.00;;
13967;SDS011;39536;52.198;9.920;2022-12-29T01:28:11;1.47;;;1.37;;
13967;SDS011;39536;52.198;9.920;2022-12-29T01:30:37;1.57;;;1.03;;
13967;SDS011;39536;52.198;9.920;2022-12-29T01:33:04;1.40;;;1.30;;
13967;SDS011;39536;52.198;9.920;2022-12-29T01:35:31;1.33;;;1.03;;
13967;SDS011;39536;52.198;9.920;2022-12-29T01:37:57;2.07;;;1.20;;
13967;SDS011;39536;52.198;9.920;2022-12-29T01:40:25;1.83;;;1.73;;
13967;SDS011;39536;52.198;9.920;2022-12-29T01:42:53;1.37;;;1.27;;
13967;SDS011;39536;52.198;9.920;2022-12-29T01:45:20;1.10;;;1.10;;
13967;SDS011;39536;52.198;9.920;2022-12-29T01:47:47;1.60;;;1.50;;
13967;SDS011;39536;52.198;9.920;2022-12-29T01:50:18;1.87;;;1.10;;
13967;SDS011;39536;52.198;9.920;2022-12-29T01:52:50;0.90;;;0.90;;
13967;SDS011;39536;52.198;9.920;2022-12-29T01:55:22;0.97;;;0.97;;
13967;SDS011;39536;52.198;9.920;2022-12-29T01:57:51;1.33;;;1.17;;
13967;SDS011;39536;52.198;9.920;2022-12-29T02:00:21;1.53;;;0.97;;
13967;SDS011;39536;52.198;9.920;2022-12-29T02:02:49;1.77;;;0.87;;
13967;SDS011;39536;52.198;9.920;2022-12-29T02:05:19;0.60;;;0.60;;
13967;SDS011;39536;52.198;9.920;2022-12-29T02:07:51;0.63;;;0.60;;
13967;SDS011;39536;52.198;9.920;2022-12-29T02:10:19;0.90;;;0.90;;
13967;SDS011;39536;52.198;9.920;2022-12-29T02:12:47;1.20;;;1.07;;
13967;SDS011;39536;52.198;9.920;2022-12-29T02:15:15;1.10;;;1.00;;
13967;SDS011;39536;52.198;9.920;2022-12-29T02:17:53;1.00;;;0.90;;
13967;SDS011;39536;52.198;9.920;2022-12-29T02:20:35;0.70;;;0.70;;
13967;SDS011;39536;52.198;9.920;2022-12-29T02:23:38;0.93;;;0.63;;
13967;SDS011;39536;52.198;9.920;2022-12-29T02:26:28;0.80;;;0.80;;
13967;SDS011;39536;52.198;9.920;2022-12-29T02:29:11;0.80;;;0.80;;
13967;SDS011;39536;52.198;9.920;2022-12-29T02:31:59;0.67;;;0.50;;
13967;SDS011;39536;52.198;9.920;2022-12-29T02:34:36;0.70;;;0.70;;
13967;SDS011;39536;52.198;9.920;2022-12-29T02:37:17;0.80;;;0.80;;
13967;SDS011;39536;52.198;9.920;2022-12-29T02:39:50;0.83;;;0.83;;
13967;SDS011;39536;52.198;9.920;2022-12-29T02:42:23;0.70;;;0.70;;
13967;SDS011;39536;52.198;9.920;2022-12-29T02:45:00;1.10;;;0.93;;
13967;SDS011;39536;52.198;9.920;2022-12-29T02:47:35;1.27;;;1.17;;
13967;SDS011;39536;52.198;9.920;2022-12-29T02:50:06;0.80;;;0.80;;
13967;SDS011;39536;52.198;9.920;2022-12-29T02:52:38;1.10;;;1.10;;
13967;SDS011;39536;52.198;9.920;2022-12-29T02:55:09;4.20;;;1.00;;
13967;SDS011;39536;52.198;9.920;2022-12-29T02:57:36;1.20;;;1.10;;
13967;SDS011;39536;52.198;9.920;2022-12-29T03:00:05;2.03;;;1.13;;
13967;SDS011;39536;52.198;9.920;2022-12-29T03:02:39;0.90;;;0.90;;
13967;SDS011;39536;52.198;9.920;2022-12-29T03:05:39;1.50;;;1.40;;
13967;SDS011;39536;52.198;9.920;2022-12-29T03:08:17;1.03;;;0.87;;
13967;SDS011;39536;52.198;9.920;2022-12-29T03:10:54;1.20;;;1.10;;
13967;SDS011;39536;52.198;9.920;2022-12-29T03:13:28;1.63;;;1.53;;
13967;SDS011;39536;52.198;9.920;2022-12-29T03:16:20;1.40;;;1.20;;
13967;SDS011;39536;52.198;9.920;2022-12-29T03:18:55;1.50;;;1.23;;
13967;SDS011;39536;52.198;9.920;2022-12-29T03:21:29;1.17;;;1.00;;
13967;SDS011;39536;52.198;9.920;2022-12-29T03:24:20;1.60;;;1.40;;
13967;SDS011;39536;52.198;9.920;2022-12-29T03:26:51;1.50;;;1.40;;
13967;SDS011;39536;52.198;9.920;2022-12-29T03:29:21;1.00;;;1.00;;
13967;SDS011;39536;52.198;9.920;2022-12-29T03:31:48;1.20;;;1.10;;
13967;SDS011;39536;52.198;9.920;2022-12-29T03:34:18;1.37;;;1.00;;
13967;SDS011;39536;52.198;9.920;2022-12-29T03:36:48;1.00;;;0.87;;
13967;SDS011;39536;52.198;9.920;2022-12-29T03:39:19;1.57;;;0.97;;
13967;SDS011;39536;52.198;9.920;2022-12-29T03:41:48;1.00;;;1.00;;
13967;SDS011;39536;52.198;9.920;2022-12-29T03:44:20;1.30;;;1.20;;
13967;SDS011;39536;52.198;9.920;2022-12-29T03:46:47;1.40;;;1.30;;
13967;SDS011;39536;52.198;9.920;2022-12-29T03:49:13;1.40;;;1.00;;
13967;SDS011;39536;52.198;9.920;2022-12-29T03:51:41;0.90;;;0.87;;
13967;SDS011;39536;52.198;9.920;2022-12-29T03:54:08;0.73;;;0.73;;
13967;SDS011;39536;52.198;9.920;2022-12-29T03:56:34;1.20;;;1.10;;
13967;SDS011;39536;52.198;9.920;2022-12-29T03:59:01;1.43;;;1.10;;
13967;SDS011;39536;52.198;9.920;2022-12-29T04:01:28;0.80;;;0.80;;
13967;SDS011;39536;52.198;9.920;2022-12-29T04:03:54;1.20;;;1.10;;
13967;SDS011;39536;52.198;9.920;2022-12-29T04:06:21;0.90;;;0.90;;
13967;SDS011;39536;52.198;9.920;2022-12-29T04:08:49;0.70;;;0.70;;
13967;SDS011;39536;52.198;9.920;2022-12-29T04:11:16;1.23;;;0.80;;
13967;SDS011;39536;52.198;9.920;2022-12-29T04:13:43;0.87;;;0.87;;
13967;SDS011;39536;52.198;9.920;2022-12-29T04:16:09;1.37;;;1.03;;
13967;SDS011;39536;52.198;9.920;2022-12-29T04:18:36;1.33;;;0.80;;
13967;SDS011;39536;52.198;9.920;2022-12-29T04:21:02;0.80;;;0.70;;
13967;SDS011;39536;52.198;9.920;2022-12-29T04:23:29;1.00;;;0.90;;
13967;SDS011;39536;52.198;9.920;2022-12-29T04:25:58;0.80;;;0.80;;
13967;SDS011;39536;52.198;9.920;2022-12-29T04:28:24;0.80;;;0.70;;
13967;SDS011;39536;52.198;9.920;2022-12-29T04:30:51;0.70;;;0.70;;
13967;SDS011;39536;52.198;9.920;2022-12-29T04:33:18;0.80;;;0.80;;
13967;SDS011;39536;52.198;9.920;2022-12-29T04:35:45;0.70;;;0.70;;
13967;SDS011;39536;52.198;9.920;2022-12-29T04:38:12;0.67;;;0.67;;
13967;SDS011;39536;52.198;9.920;2022-12-29T04:40:39;0.73;;;0.73;;
13967;SDS011;39536;52.198;9.920;2022-12-29T04:43:08;0.80;;;0.80;;
13967;SDS011;39536;52.198;9.920;2022-12-29T04:45:35;0.80;;;0.80;;
13967;SDS011;39536;52.198;9.920;2022-12-29T04:48:02;0.97;;;0.80;;
13967;SDS011;39536;52.198;9.920;2022-12-29T04:50:29;1.40;;;0.80;;
13967;SDS011;39536;52.198;9.920;2022-12-29T04:52:55;0.60;;;0.60;;
13967;SDS011;39536;52.198;9.920;2022-12-29T04:55:22;0.80;;;0.70;;
13967;SDS011;39536;52.198;9.920;2022-12-29T04:57:48;0.80;;;0.80;;
13967;SDS011;39536;52.198;9.920;2022-12-29T05:00:16;1.03;;;0.50;;
13967;SDS011;39536;52.198;9.920;2022-12-29T05:02:43;0.50;;;0.50;;
13967;SDS011;39536;52.198;9.920;2022-12-29T05:05:10;0.67;;;0.67;;
13967;SDS011;39536;52.198;9.920;2022-12-29T05:07:37;0.70;;;0.70;;
13967;SDS011;39536;52.198;9.920;2022-12-29T05:10:04;0.60;;;0.50;;
13967;SDS011;39536;52.198;9.920;2022-12-29T05:12:33;1.47;;;0.77;;
13967;SDS011;39536;52.198;9.920;2022-12-29T05:15:01;0.63;;;0.63;;
13967;SDS011;39536;52.198;9.920;2022-12-29T05:17:29;1.50;;;0.90;;
13967;SDS011;39536;52.198;9.920;2022-12-29T05:19:56;0.80;;;0.40;;
13967;SDS011;39536;52.198;9.920;2022-12-29T05:22:22;0.80;;;0.50;;
13967;SDS011;39536;52.198;9.920;2022-12-29T05:24:49;0.60;;;0.43;;
13967;SDS011;39536;52.198;9.920;2022-12-29T05:27:16;1.27;;;0.63;;
13967;SDS011;39536;52.198;9.920;2022-12-29T05:29:42;1.03;;;0.53;;
13967;SDS011;39536;52.198;9.920;2022-12-29T05:32:09;0.50;;;0.50;;
13967;SDS011;39536;52.198;9.920;2022-12-29T05:34:37;1.60;;;0.50;;
13967;SDS011;39536;52.198;9.920;2022-12-29T05:37:03;0.50;;;0.50;;
13967;SDS011;39536;52.198;9.920;2022-12-29T05:39:30;0.50;;;0.50;;
13967;SDS011;39536;52.198;9.920;2022-12-29T05:41:56;0.30;;;0.30;;
13967;SDS011;39536;52.198;9.920;2022-12-29T05:44:23;0.60;;;0.50;;
13967;SDS011;39536;52.198;9.920;2022-12-29T05:46:50;0.90;;;0.60;;
13967;SDS011;39536;52.198;9.920;2022-12-29T05:49:16;0.47;;;0.47;;
13967;SDS011;39536;52.198;9.920;2022-12-29T05:51:44;0.50;;;0.50;;
13967;SDS011;39536;52.198;9.920;2022-12-29T05:54:11;0.70;;;0.70;;
13967;SDS011;39536;52.198;9.920;2022-12-29T05:56:38;1.17;;;0.47;;
13967;SDS011;39536;52.198;9.920;2022-12-29T05:59:04;0.67;;;0.67;;
13967;SDS011;39536;52.198;9.920;2022-12-29T06:01:31;1.50;;;0.50;;
13967;SDS011;39536;52.198;9.920;2022-12-29T06:03:59;0.80;;;0.60;;
13967;SDS011;39536;52.198;9.920;2022-12-29T06:06:26;0.37;;;0.37;;
13967;SDS011;39536;52.198;9.920;2022-12-29T06:08:53;0.50;;;0.50;;
13967;SDS011;39536;52.198;9.920;2022-12-29T06:11:20;0.37;;;0.37;;
13967;SDS011;39536;52.198;9.920;2022-12-29T06:13:47;0.30;;;0.30;;
13967;SDS011;39536;52.198;9.920;2022-12-29T06:16:13;0.30;;;0.30;;
13967;SDS011;39536;52.198;9.920;2022-12-29T06:18:40;0.40;;;0.40;;
13967;SDS011;39536;52.198;9.920;2022-12-29T06:21:07;0.50;;;0.50;;
13967;SDS011;39536;52.198;9.920;2022-12-29T06:23:33;0.40;;;0.40;;
13967;SDS011;39536;52.198;9.920;2022-12-29T06:26:01;0.40;;;0.40;;
13967;SDS011;39536;52.198;9.920;2022-12-29T06:28:28;1.77;;;1.67;;
13967;SDS011;39536;52.198;9.920;2022-12-29T06:30:55;0.80;;;0.50;;
13967;SDS011;39536;52.198;9.920;2022-12-29T06:33:22;0.30;;;0.30;;
13967;SDS011;39536;52.198;9.920;2022-12-29T06:35:49;0.50;;;0.50;;
13967;SDS011;39536;52.198;9.920;2022-12-29T06:38:15;0.27;;;0.27;;
13967;SDS011;39536;52.198;9.920;2022-12-29T06:40:42;0.40;;;0.40;;
13967;SDS011;39536;52.198;9.920;2022-12-29T06:43:11;0.37;;;0.37;;
13967;SDS011;39536;52.198;9.920;2022-12-29T06:45:38;0.10;;;0.10;;
13967;SDS011;39536;52.198;9.920;2022-12-29T06:48:05;0.53;;;0.30;;
13967;SDS011;39536;52.198;9.920;2022-12-29T06:50:32;0.40;;;0.30;;
13967;SDS011;39536;52.198;9.920;2022-12-29T06:52:58;0.43;;;0.30;;
13967;SDS011;39536;52.198;9.920;2022-12-29T06:55:25;0.20;;;0.20;;
13967;SDS011;39536;52.198;9.920;2022-12-29T06:57:53;1.40;;;0.20;;
13967;SDS011;39536;52.198;9.920;2022-12-29T07:00:22;0.23;;;0.23;;
13967;SDS011;39536;52.198;9.920;2022-12-29T07:02:49;0.10;;;0.10;;
13967;SDS011;39536;52.198;9.920;2022-12-29T07:05:16;0.93;;;0.60;;
13967;SDS011;39536;52.198;9.920;2022-12-29T07:07:43;0.20;;;0.20;;
13967;SDS011;39536;52.198;9.920;2022-12-29T07:10:10;0.20;;;0.20;;
13967;SDS011;39536;52.198;9.920;2022-12-29T07:12:37;0.30;;;0.30;;
13967;SDS011;39536;52.198;9.920;2022-12-29T07:15:03;0.30;;;0.30;;
13967;SDS011;39536;52.198;9.920;2022-12-29T07:17:32;0.33;;;0.33;;
13967;SDS011;39536;52.198;9.920;2022-12-29T07:19:58;0.20;;;0.20;;
13967;SDS011;39536;52.198;9.920;2022-12-29T07:22:25;0.20;;;0.20;;
13967;SDS011;39536;52.198;9.920;2022-12-29T07:24:51;0.47;;;0.30;;
13967;SDS011;39536;52.198;9.920;2022-12-29T07:27:18;0.27;;;0.27;;
13967;SDS011;39536;52.198;9.920;2022-12-29T07:29:45;0.57;;;0.33;;
13967;SDS011;39536;52.198;9.920;2022-12-29T07:32:11;0.50;;;0.50;;
13967;SDS011;39536;52.198;9.920;2022-12-29T07:34:39;0.33;;;0.33;;
13967;SDS011;39536;52.198;9.920;2022-12-29T07:37:06;0.30;;;0.30;;
13967;SDS011;39536;52.198;9.920;2022-12-29T07:39:33;0.50;;;0.37;;
13967;SDS011;39536;52.198;9.920;2022-12-29T07:41:59;0.40;;;0.40;;
13967;SDS011;39536;52.198;9.920;2022-12-29T07:44:26;0.73;;;0.30;;
13967;SDS011;39536;52.198;9.920;2022-12-29T07:46:53;0.40;;;0.40;;
13967;SDS011;39536;52.198;9.920;2022-12-29T07:49:19;0.13;;;0.13;;
13967;SDS011;39536;52.198;9.920;2022-12-29T07:51:47;0.40;;;0.40;;
13967;SDS011;39536;52.198;9.920;2022-12-29T07:54:14;0.87;;;0.87;;
13967;SDS011;39536;52.198;9.920;2022-12-29T07:56:43;1.67;;;1.20;;
13967;SDS011;39536;52.198;9.920;2022-12-29T07:59:09;0.60;;;0.60;;
13967;SDS011;39536;52.198;9.920;2022-12-29T08:01:37;0.83;;;0.40;;
13967;SDS011;39536;52.198;9.920;2022-12-29T08:04:03;1.30;;;0.70;;
13967;SDS011;39536;52.198;9.920;2022-12-29T08:06:30;0.30;;;0.30;;
13967;SDS011;39536;52.198;9.920;2022-12-29T08:08:58;1.27;;;0.50;;
13967;SDS011;39536;52.198;9.920;2022-12-29T08:11:26;0.30;;;0.30;;
13967;SDS011;39536;52.198;9.920;2022-12-29T08:13:52;1.03;;;0.40;;
13967;SDS011;39536;52.198;9.920;2022-12-29T08:16:19;0.50;;;0.47;;
13967;SDS011;39536;52.198;9.920;2022-12-29T08:18:45;0.63;;;0.40;;
13967;SDS011;39536;52.198;9.920;2022-12-29T08:21:12;0.90;;;0.60;;
13967;SDS011;39536;52.198;9.920;2022-12-29T08:23:39;0.50;;;0.50;;
13967;SDS011;39536;52.198;9.920;2022-12-29T08:26:07;0.40;;;0.40;;
13967;SDS011;39536;52.198;9.920;2022-12-29T08:28:33;0.40;;;0.40;;
13967;SDS011;39536;52.198;9.920;2022-12-29T08:31:00;0.87;;;0.70;;
13967;SDS011;39536;52.198;9.920;2022-12-29T08:33:28;0.60;;;0.60;;
13967;SDS011;39536;52.198;9.920;2022-12-29T08:35:59;0.97;;;0.80;;
13967;SDS011;39536;52.198;9.920;2022-12-29T08:38:26;0.50;;;0.50;;
13967;SDS011;39536;52.198;9.920;2022-12-29T08:40:53;0.40;;;0.40;;
13967;SDS011;39536;52.198;9.920;2022-12-29T08:43:21;0.50;;;0.50;;
13967;SDS011;39536;52.198;9.920;2022-12-29T08:45:48;0.90;;;0.50;;
13967;SDS011;39536;52.198;9.920;2022-12-29T08:48:15;0.37;;;0.37;;
13967;SDS011;39536;52.198;9.920;2022-12-29T08:50:44;2.17;;;0.67;;
13967;SDS011;39536;52.198;9.920;2022-12-29T08:53:11;1.70;;;0.67;;
13967;SDS011;39536;52.198;9.920;2022-12-29T08:55:38;1.33;;;0.97;;
13967;SDS011;39536;52.198;9.920;2022-12-29T08:58:04;1.57;;;0.80;;
13967;SDS011;39536;52.198;9.920;2022-12-29T09:00:32;1.10;;;0.77;;
13967;SDS011;39536;52.198;9.920;2022-12-29T09:02:59;1.10;;;0.60;;
13967;SDS011;39536;52.198;9.920;2022-12-29T09:05:25;1.43;;;0.90;;
13967;SDS011;39536;52.198;9.920;2022-12-29T09:07:52;2.00;;;1.07;;
13967;SDS011;39536;52.198;9.920;2022-12-29T09:10:19;0.50;;;0.47;;
13967;SDS011;39536;52.198;9.920;2022-12-29T09:12:45;0.97;;;0.47;;
13967;SDS011;39536;52.198;9.920;2022-12-29T09:15:12;0.60;;;0.60;;
13967;SDS011;39536;52.198;9.920;2022-12-29T09:17:41;0.60;;;0.60;;
13967;SDS011;39536;52.198;9.920;2022-12-29T09:20:09;0.50;;;0.50;;
13967;SDS011;39536;52.198;9.920;2022-12-29T09:22:36;1.53;;;0.90;;
13967;SDS011;39536;52.198;9.920;2022-12-29T09:25:03;2.63;;;0.80;;
13967;SDS011;39536;52.198;9.920;2022-12-29T09:27:30;0.30;;;0.30;;
13967;SDS011;39536;52.198;9.920;2022-12-29T09:29:57;0.80;;;0.50;;
13967;SDS011;39536;52.198;9.920;2022-12-29T09:32:23;0.60;;;0.57;;
13967;SDS011;39536;52.198;9.920;2022-12-29T09:34:51;1.20;;;0.90;;
13967;SDS011;39536;52.198;9.920;2022-12-29T09:37:18;0.40;;;0.40;;
13967;SDS011;39536;52.198;9.920;2022-12-29T09:39:44;1.20;;;0.70;;
13967;SDS011;39536;52.198;9.920;2022-12-29T09:42:12;1.80;;;0.93;;
13967;SDS011;39536;52.198;9.920;2022-12-29T09:44:48;1.60;;;1.23;;
13967;SDS011;39536;52.198;9.920;2022-12-29T09:47:22;1.37;;;1.10;;
13967;SDS011;39536;52.198;9.920;2022-12-29T09:49:53;1.20;;;1.10;;
13967;SDS011;39536;52.198;9.920;2022-12-29T09:52:22;4.60;;;1.70;;
13967;SDS011;39536;52.198;9.920;2022-12-29T09:54:55;2.00;;;1.03;;
13967;SDS011;39536;52.198;9.920;2022-12-29T09:57:24;1.20;;;1.10;;
13967;SDS011;39536;52.198;9.920;2022-12-29T09:59:54;1.33;;;1.10;;
13967;SDS011;39536;52.198;9.920;2022-12-29T10:02:30;0.90;;;0.90;;
13967;SDS011;39536;52.198;9.920;2022-12-29T10:05:01;0.60;;;0.60;;
13967;SDS011;39536;52.198;9.920;2022-12-29T10:07:35;0.57;;;0.50;;
13967;SDS011;39536;52.198;9.920;2022-12-29T10:10:15;2.20;;;0.90;;
13967;SDS011;39536;52.198;9.920;2022-12-29T10:12:55;0.57;;;0.57;;
13967;SDS011;39536;52.198;9.920;2022-12-29T10:18:19;1.13;;;0.50;;
13967;SDS011;39536;52.198;9.920;2022-12-29T10:21:00;4.63;;;1.00;;
13967;SDS011;39536;52.198;9.920;2022-12-29T10:23:35;1.10;;;0.77;;
13967;SDS011;39536;52.198;9.920;2022-12-29T10:26:07;0.60;;;0.60;;
13967;SDS011;39536;52.198;9.920;2022-12-29T10:28:39;0.60;;;0.60;;
13967;SDS011;39536;52.198;9.920;2022-12-29T10:31:11;0.87;;;0.60;;
13967;SDS011;39536;52.198;9.920;2022-12-29T10:33:42;1.97;;;0.70;;
13967;SDS011;39536;52.198;9.920;2022-12-29T10:36:13;0.57;;;0.50;;
13967;SDS011;39536;52.198;9.920;2022-12-29T10:38:45;1.20;;;0.60;;
13967;SDS011;39536;52.198;9.920;2022-12-29T10:41:20;7.50;;;1.07;;
13967;SDS011;39536;52.198;9.920;2022-12-29T10:43:52;1.33;;;0.80;;
13967;SDS011;39536;52.198;9.920;2022-12-29T10:46:23;1.87;;;0.60;;
13967;SDS011;39536;52.198;9.920;2022-12-29T10:48:54;2.33;;;0.90;;
13967;SDS011;39536;52.198;9.920;2022-12-29T10:51:22;0.80;;;0.73;;
13967;SDS011;39536;52.198;9.920;2022-12-29T10:53:51;1.20;;;0.80;;
13967;SDS011;39536;52.198;9.920;2022-12-29T10:56:25;2.13;;;0.70;;
13967;SDS011;39536;52.198;9.920;2022-12-29T10:58:58;0.80;;;0.50;;
13967;SDS011;39536;52.198;9.920;2022-12-29T11:01:31;1.97;;;0.87;;
13967;SDS011;39536;52.198;9.920;2022-12-29T11:04:03;2.27;;;0.90;;
13967;SDS011;39536;52.198;9.920;2022-12-29T11:06:42;2.47;;;1.20;;
13967;SDS011;39536;52.198;9.920;2022-12-29T11:09:10;1.80;;;0.80;;
13967;SDS011;39536;52.198;9.920;2022-12-29T11:11:40;1.83;;;1.17;;
13967;SDS011;39536;52.198;9.920;2022-12-29T11:14:10;2.27;;;0.90;;
13967;SDS011;39536;52.198;9.920;2022-12-29T11:16:38;1.83;;;1.00;;
13967;SDS011;39536;52.198;9.920;2022-12-29T11:19:10;1.07;;;0.60;;
13967;SDS011;39536;52.198;9.920;2022-12-29T11:21:47;2.57;;;0.80;;
13967;SDS011;39536;52.198;9.920;2022-12-29T11:24:18;2.43;;;0.97;;
13967;SDS011;39536;52.198;9.920;2022-12-29T11:26:46;3.00;;;1.33;;
13967;SDS011;39536;52.198;9.920;2022-12-29T11:29:23;0.93;;;0.50;;
13967;SDS011;39536;52.198;9.920;2022-12-29T11:31:51;1.20;;;0.93;;
13967;SDS011;39536;52.198;9.920;2022-12-29T11:34:20;2.33;;;0.90;;
13967;SDS011;39536;52.198;9.920;2022-12-29T11:36:49;1.47;;;0.70;;
13967;SDS011;39536;52.198;9.920;2022-12-29T11:39:26;4.20;;;0.90;;
13967;SDS011;39536;52.198;9.920;2022-12-29T11:41:56;0.67;;;0.37;;
13967;SDS011;39536;52.198;9.920;2022-12-29T11:44:24;1.27;;;0.80;;
13967;SDS011;39536;52.198;9.920;2022-12-29T11:46:51;1.23;;;1.10;;
13967;SDS011;39536;52.198;9.920;2022-12-29T11:49:20;1.53;;;1.10;;
13967;SDS011;39536;52.198;9.920;2022-12-29T11:51:51;1.83;;;0.80;;
13967;SDS011;39536;52.198;9.920;2022-12-29T11:54:21;1.33;;;0.80;;
13967;SDS011;39536;52.198;9.920;2022-12-29T11:56:50;4.27;;;0.83;;
13967;SDS011;39536;52.198;9.920;2022-12-29T11:59:24;1.10;;;0.40;;
13967;SDS011;39536;52.198;9.920;2022-12-29T12:02:03;1.57;;;0.80;;
13967;SDS011;39536;52.198;9.920;2022-12-29T12:04:45;2.97;;;1.23;;
13967;SDS011;39536;52.198;9.920;2022-12-29T12:07:17;3.10;;;1.37;;
13967;SDS011;39536;52.198;9.920;2022-12-29T12:09:49;8.33;;;1.13;;
13967;SDS011;39536;52.198;9.920;2022-12-29T12:12:21;4.00;;;1.30;;
13967;SDS011;39536;52.198;9.920;2022-12-29T12:14:54;1.27;;;0.80;;
13967;SDS011;39536;52.198;9.920;2022-12-29T12:17:25;2.00;;;0.67;;
13967;SDS011;39536;52.198;9.920;2022-12-29T12:20:03;3.73;;;1.37;;
13967;SDS011;39536;52.198;9.920;2022-12-29T12:22:42;2.77;;;1.40;;
13967;SDS011;39536;52.198;9.920;2022-12-29T12:25:12;1.43;;;0.80;;
13967;SDS011;39536;52.198;9.920;2022-12-29T12:27:48;1.27;;;1.07;;
13967;SDS011;39536;52.198;9.920;2022-12-29T12:30:18;2.27;;;1.00;;
13967;SDS011;39536;52.198;9.920;2022-12-29T12:32:48;0.73;;;0.60;;
13967;SDS011;39536;52.198;9.920;2022-12-29T12:35:23;1.73;;;1.10;;
13967;SDS011;39536;52.198;9.920;2022-12-29T12:38:12;1.40;;;1.00;;
13967;SDS011;39536;52.198;9.920;2022-12-29T12:40:56;4.23;;;0.93;;
13967;SDS011;39536;52.198;9.920;2022-12-29T12:43:37;3.13;;;1.03;;
13967;SDS011;39536;52.198;9.920;2022-12-29T12:46:18;2.40;;;1.37;;
13967;SDS011;39536;52.198;9.920;2022-12-29T12:48:58;3.03;;;1.43;;
13967;SDS011;39536;52.198;9.920;2022-12-29T12:51:42;1.50;;;0.80;;
13967;SDS011;39536;52.198;9.920;2022-12-29T12:54:22;1.20;;;0.80;;
13967;SDS011;39536;52.198;9.920;2022-12-29T12:57:03;1.13;;;0.83;;
13967;SDS011;39536;52.198;9.920;2022-12-29T12:59:44;1.53;;;0.77;;
13967;SDS011;39536;52.198;9.920;2022-12-29T13:02:23;2.63;;;0.83;;
13967;SDS011;39536;52.198;9.920;2022-12-29T13:05:09;1.77;;;0.90;;
13967;SDS011;39536;52.198;9.920;2022-12-29T13:07:51;1.17;;;0.80;;
13967;SDS011;39536;52.198;9.920;2022-12-29T13:10:35;1.33;;;0.90;;
13967;SDS011;39536;52.198;9.920;2022-12-29T13:13:15;1.63;;;0.97;;
13967;SDS011;39536;52.198;9.920;2022-12-29T13:15:56;3.97;;;0.73;;
13967;SDS011;39536;52.198;9.920;2022-12-29T13:18:30;2.97;;;1.37;;
13967;SDS011;39536;52.198;9.920;2022-12-29T13:21:04;2.00;;;1.03;;
13967;SDS011;39536;52.198;9.920;2022-12-29T13:23:38;1.60;;;0.73;;
13967;SDS011;39536;52.198;9.920;2022-12-29T13:26:16;3.23;;;1.00;;
13967;SDS011;39536;52.198;9.920;2022-12-29T13:28:49;2.13;;;1.27;;
13967;SDS011;39536;52.198;9.920;2022-12-29T13:38:10;4.77;;;1.17;;
13967;SDS011;39536;52.198;9.920;2022-12-29T13:40:41;1.57;;;1.23;;
13967;SDS011;39536;52.198;9.920;2022-12-29T13:43:13;2.83;;;1.20;;
13967;SDS011;39536;52.198;9.920;2022-12-29T13:45:42;3.57;;;1.20;;
13967;SDS011;39536;52.198;9.920;2022-12-29T13:48:13;2.37;;;1.10;;
13967;SDS011;39536;52.198;9.920;2022-12-29T13:50:43;2.43;;;1.17;;
13967;SDS011;39536;52.198;9.920;2022-12-29T13:53:15;3.43;;;1.30;;
13967;SDS011;39536;52.198;9.920;2022-12-29T13:55:51;2.97;;;1.27;;
13967;SDS011;39536;52.198;9.920;2022-12-29T13:58:24;3.03;;;1.20;;
13967;SDS011;39536;52.198;9.920;2022-12-29T14:00:58;3.70;;;1.20;;
13967;SDS011;39536;52.198;9.920;2022-12-29T14:03:41;1.23;;;0.77;;
13967;SDS011;39536;52.198;9.920;2022-12-29T14:06:19;2.90;;;1.13;;
13967;SDS011;39536;52.198;9.920;2022-12-29T14:08:49;6.60;;;1.20;;
13967;SDS011;39536;52.198;9.920;2022-12-29T14:11:20;1.40;;;1.00;;
13967;SDS011;39536;52.198;9.920;2022-12-29T14:13:51;5.73;;;1.30;;
13967;SDS011;39536;52.198;9.920;2022-12-29T14:16:25;2.20;;;1.20;;
13967;SDS011;39536;52.198;9.920;2022-12-29T14:18:54;4.17;;;1.80;;
13967;SDS011;39536;52.198;9.920;2022-12-29T14:21:24;3.40;;;2.07;;
13967;SDS011;39536;52.198;9.920;2022-12-29T14:23:57;2.47;;;1.20;;
13967;SDS011;39536;52.198;9.920;2022-12-29T14:26:52;2.27;;;1.20;;
13967;SDS011;39536;52.198;9.920;2022-12-29T14:29:43;4.37;;;1.70;;
13967;SDS011;39536;52.198;9.920;2022-12-29T14:38:06;8.43;;;1.80;;
13967;SDS011;39536;52.198;9.920;2022-12-29T14:40:33;1.70;;;0.93;;
13967;SDS011;39536;52.198;9.920;2022-12-29T14:43:00;2.27;;;0.90;;
13967;SDS011;39536;52.198;9.920;2022-12-29T14:45:28;4.03;;;1.57;;
13967;SDS011;39536;52.198;9.920;2022-12-29T14:47:57;2.90;;;1.67;;
13967;SDS011;39536;52.198;9.920;2022-12-29T14:50:25;3.47;;;2.17;;
13967;SDS011;39536;52.198;9.920;2022-12-29T14:53:32;2.80;;;2.57;;
13967;SDS011;39536;52.198;9.920;2022-12-29T14:56:09;4.30;;;0.90;;
13967;SDS011;39536;52.198;9.920;2022-12-29T14:58:38;5.97;;;2.00;;
13967;SDS011;39536;52.198;9.920;2022-12-29T15:01:17;1.57;;;1.13;;
13967;SDS011;39536;52.198;9.920;2022-12-29T15:03:46;2.07;;;1.13;;
13967;SDS011;39536;52.198;9.920;2022-12-29T15:06:16;2.27;;;0.77;;
13967;SDS011;39536;52.198;9.920;2022-12-29T15:08:48;4.27;;;1.40;;
13967;SDS011;39536;52.198;9.920;2022-12-29T15:11:18;3.50;;;0.90;;
13967;SDS011;39536;52.198;9.920;2022-12-29T15:13:47;3.60;;;1.10;;
13967;SDS011;39536;52.198;9.920;2022-12-29T15:16:22;1.30;;;1.00;;
13967;SDS011;39536;52.198;9.920;2022-12-29T15:18:50;2.67;;;1.07;;
13967;SDS011;39536;52.198;9.920;2022-12-29T15:21:17;2.13;;;1.20;;
13967;SDS011;39536;52.198;9.920;2022-12-29T15:23:49;3.70;;;0.93;;
13967;SDS011;39536;52.198;9.920;2022-12-29T15:26:15;3.47;;;1.10;;